sensor_id;sensor_type;location;lat;lon;timestamp;P1;durP1;ratioP1;P2;durP2;ratioP2
14191;SDS011;7177;48.572;7.838;2022-10-22T00:01:59;2.97;;;1.80;;
14191;SDS011;7177;48.572;7.838;2022-10-22T00:04:24;3.03;;;1.80;;
14191;SDS011;7177;48.572;7.838;2022-10-22T00:06:50;4.03;;;1.93;;
14191;SDS011;7177;48.572;7.838;2022-10-22T00:09:15;5.10;;;1.93;;
14191;SDS011;7177;48.572;7.838;2022-10-22T00:11:41;5.57;;;1.77;;
14191;SDS011;7177;48.572;7.838;2022-10-22T00:14:07;3.40;;;1.60;;
14191;SDS011;7177;48.572;7.838;2022-10-22T00:16:33;5.13;;;1.50;;
14191;SDS011;7177;48.572;7.838;2022-10-22T00:18:59;5.73;;;1.80;;
14191;SDS011;7177;48.572;7.838;2022-10-22T00:21:24;2.50;;;1.70;;
14191;SDS011;7177;48.572;7.838;2022-10-22T00:23:52;2.43;;;1.83;;
14191;SDS011;7177;48.572;7.838;2022-10-22T00:26:19;2.60;;;1.83;;
14191;SDS011;7177;48.572;7.838;2022-10-22T00:28:45;4.10;;;2.13;;
14191;SDS011;7177;48.572;7.838;2022-10-22T00:31:10;3.07;;;1.90;;
14191;SDS011;7177;48.572;7.838;2022-10-22T00:33:36;4.23;;;2.13;;
14191;SDS011;7177;48.572;7.838;2022-10-22T00:36:01;5.50;;;2.03;;
14191;SDS011;7177;48.572;7.838;2022-10-22T00:38:27;2.87;;;2.10;;
14191;SDS011;7177;48.572;7.838;2022-10-22T00:40:53;4.93;;;2.40;;
14191;SDS011;7177;48.572;7.838;2022-10-22T00:43:18;7.40;;;2.20;;
14191;SDS011;7177;48.572;7.838;2022-10-22T00:45:44;3.70;;;2.10;;
14191;SDS011;7177;48.572;7.838;2022-10-22T00:48:11;3.27;;;2.13;;
14191;SDS011;7177;48.572;7.838;2022-10-22T00:53:18;2.97;;;2.37;;
14191;SDS011;7177;48.572;7.838;2022-10-22T00:55:45;3.47;;;2.20;;
14191;SDS011;7177;48.572;7.838;2022-10-22T00:58:13;2.53;;;2.30;;
14191;SDS011;7177;48.572;7.838;2022-10-22T01:00:39;6.63;;;2.57;;
14191;SDS011;7177;48.572;7.838;2022-10-22T01:03:05;3.60;;;2.63;;
14191;SDS011;7177;48.572;7.838;2022-10-22T01:05:32;3.13;;;2.23;;
14191;SDS011;7177;48.572;7.838;2022-10-22T01:08:04;3.57;;;2.50;;
14191;SDS011;7177;48.572;7.838;2022-10-22T01:10:55;5.77;;;2.97;;
14191;SDS011;7177;48.572;7.838;2022-10-22T01:22:13;4.40;;;2.60;;
14191;SDS011;7177;48.572;7.838;2022-10-22T01:30:09;3.07;;;2.23;;
14191;SDS011;7177;48.572;7.838;2022-10-22T01:32:43;5.43;;;2.63;;
14191;SDS011;7177;48.572;7.838;2022-10-22T01:35:15;5.63;;;2.67;;
14191;SDS011;7177;48.572;7.838;2022-10-22T01:37:47;6.13;;;2.90;;
14191;SDS011;7177;48.572;7.838;2022-10-22T01:40:16;6.23;;;3.17;;
14191;SDS011;7177;48.572;7.838;2022-10-22T01:42:53;5.60;;;3.40;;
14191;SDS011;7177;48.572;7.838;2022-10-22T01:45:19;5.27;;;3.40;;
14191;SDS011;7177;48.572;7.838;2022-10-22T01:47:56;7.93;;;3.57;;
14191;SDS011;7177;48.572;7.838;2022-10-22T01:50:40;4.43;;;3.17;;
14191;SDS011;7177;48.572;7.838;2022-10-22T01:58:44;4.80;;;3.27;;
14191;SDS011;7177;48.572;7.838;2022-10-22T02:07:04;8.50;;;5.13;;
14191;SDS011;7177;48.572;7.838;2022-10-22T02:09:31;7.13;;;4.97;;
14191;SDS011;7177;48.572;7.838;2022-10-22T02:11:59;11.17;;;4.70;;
14191;SDS011;7177;48.572;7.838;2022-10-22T02:14:27;6.80;;;4.40;;
14191;SDS011;7177;48.572;7.838;2022-10-22T02:16:54;4.47;;;3.30;;
14191;SDS011;7177;48.572;7.838;2022-10-22T02:19:37;5.50;;;3.80;;
14191;SDS011;7177;48.572;7.838;2022-10-22T02:22:07;6.00;;;3.40;;
14191;SDS011;7177;48.572;7.838;2022-10-22T02:24:33;11.63;;;3.80;;
14191;SDS011;7177;48.572;7.838;2022-10-22T02:27:02;5.13;;;3.30;;
14191;SDS011;7177;48.572;7.838;2022-10-22T02:29:38;8.40;;;4.23;;
14191;SDS011;7177;48.572;7.838;2022-10-22T02:32:44;7.40;;;3.43;;
14191;SDS011;7177;48.572;7.838;2022-10-22T02:35:20;4.00;;;2.93;;
14191;SDS011;7177;48.572;7.838;2022-10-22T02:37:48;6.13;;;3.80;;
14191;SDS011;7177;48.572;7.838;2022-10-22T02:40:15;4.57;;;3.30;;
14191;SDS011;7177;48.572;7.838;2022-10-22T02:42:41;5.37;;;2.63;;
14191;SDS011;7177;48.572;7.838;2022-10-22T02:45:07;5.03;;;2.70;;
14191;SDS011;7177;48.572;7.838;2022-10-22T02:47:33;5.07;;;2.57;;
14191;SDS011;7177;48.572;7.838;2022-10-22T02:49:59;3.40;;;2.10;;
14191;SDS011;7177;48.572;7.838;2022-10-22T02:52:24;3.23;;;2.50;;
14191;SDS011;7177;48.572;7.838;2022-10-22T02:54:50;3.73;;;2.17;;
14191;SDS011;7177;48.572;7.838;2022-10-22T02:57:15;4.17;;;2.20;;
14191;SDS011;7177;48.572;7.838;2022-10-22T02:59:41;2.30;;;2.10;;
14191;SDS011;7177;48.572;7.838;2022-10-22T03:02:06;5.83;;;2.10;;
14191;SDS011;7177;48.572;7.838;2022-10-22T03:04:32;2.47;;;1.70;;
14191;SDS011;7177;48.572;7.838;2022-10-22T03:06:57;3.83;;;2.17;;
14191;SDS011;7177;48.572;7.838;2022-10-22T03:09:23;4.67;;;1.73;;
14191;SDS011;7177;48.572;7.838;2022-10-22T03:11:49;4.73;;;1.40;;
14191;SDS011;7177;48.572;7.838;2022-10-22T03:14:14;2.10;;;1.60;;
14191;SDS011;7177;48.572;7.838;2022-10-22T03:16:40;4.37;;;1.80;;
14191;SDS011;7177;48.572;7.838;2022-10-22T03:19:05;2.63;;;1.60;;
14191;SDS011;7177;48.572;7.838;2022-10-22T03:21:45;2.07;;;1.50;;
14191;SDS011;7177;48.572;7.838;2022-10-22T03:24:28;3.10;;;2.10;;
14191;SDS011;7177;48.572;7.838;2022-10-22T03:26:58;3.43;;;2.37;;
14191;SDS011;7177;48.572;7.838;2022-10-22T03:29:24;2.83;;;2.50;;
14191;SDS011;7177;48.572;7.838;2022-10-22T03:31:51;3.00;;;2.27;;
14191;SDS011;7177;48.572;7.838;2022-10-22T03:34:17;3.10;;;2.00;;
14191;SDS011;7177;48.572;7.838;2022-10-22T03:36:42;4.20;;;2.20;;
14191;SDS011;7177;48.572;7.838;2022-10-22T03:39:08;3.27;;;2.10;;
14191;SDS011;7177;48.572;7.838;2022-10-22T03:41:37;3.00;;;1.90;;
14191;SDS011;7177;48.572;7.838;2022-10-22T03:44:02;2.57;;;1.90;;
14191;SDS011;7177;48.572;7.838;2022-10-22T03:46:29;6.00;;;2.23;;
14191;SDS011;7177;48.572;7.838;2022-10-22T03:48:55;2.40;;;2.00;;
14191;SDS011;7177;48.572;7.838;2022-10-22T03:51:20;4.30;;;2.30;;
14191;SDS011;7177;48.572;7.838;2022-10-22T03:53:46;3.77;;;3.07;;
14191;SDS011;7177;48.572;7.838;2022-10-22T03:56:12;6.53;;;3.50;;
14191;SDS011;7177;48.572;7.838;2022-10-22T03:58:38;8.23;;;3.37;;
14191;SDS011;7177;48.572;7.838;2022-10-22T04:01:08;5.73;;;4.00;;
14191;SDS011;7177;48.572;7.838;2022-10-22T04:03:36;4.53;;;4.00;;
14191;SDS011;7177;48.572;7.838;2022-10-22T04:06:03;7.03;;;3.80;;
14191;SDS011;7177;48.572;7.838;2022-10-22T04:08:31;6.10;;;4.20;;
14191;SDS011;7177;48.572;7.838;2022-10-22T04:10:57;7.30;;;3.73;;
14191;SDS011;7177;48.572;7.838;2022-10-22T04:13:23;4.80;;;3.80;;
14191;SDS011;7177;48.572;7.838;2022-10-22T04:15:48;7.33;;;4.17;;
14191;SDS011;7177;48.572;7.838;2022-10-22T04:18:15;6.07;;;3.83;;
14191;SDS011;7177;48.572;7.838;2022-10-22T04:20:42;7.43;;;3.80;;
14191;SDS011;7177;48.572;7.838;2022-10-22T04:23:07;4.40;;;3.87;;
14191;SDS011;7177;48.572;7.838;2022-10-22T04:25:33;4.70;;;3.53;;
14191;SDS011;7177;48.572;7.838;2022-10-22T04:27:58;5.67;;;3.90;;
14191;SDS011;7177;48.572;7.838;2022-10-22T04:30:24;7.30;;;3.30;;
14191;SDS011;7177;48.572;7.838;2022-10-22T04:32:49;4.43;;;3.43;;
14191;SDS011;7177;48.572;7.838;2022-10-22T04:35:15;4.20;;;3.67;;
14191;SDS011;7177;48.572;7.838;2022-10-22T04:37:40;4.30;;;3.53;;
14191;SDS011;7177;48.572;7.838;2022-10-22T04:40:06;8.83;;;3.30;;
14191;SDS011;7177;48.572;7.838;2022-10-22T04:42:32;6.07;;;3.47;;
14191;SDS011;7177;48.572;7.838;2022-10-22T04:44:58;9.47;;;3.67;;
14191;SDS011;7177;48.572;7.838;2022-10-22T04:47:23;6.90;;;3.63;;
14191;SDS011;7177;48.572;7.838;2022-10-22T04:49:49;6.40;;;3.30;;
14191;SDS011;7177;48.572;7.838;2022-10-22T04:52:14;4.97;;;3.47;;
14191;SDS011;7177;48.572;7.838;2022-10-22T04:54:40;4.40;;;3.37;;
14191;SDS011;7177;48.572;7.838;2022-10-22T04:57:05;4.93;;;3.90;;
14191;SDS011;7177;48.572;7.838;2022-10-22T04:59:31;4.00;;;3.17;;
14191;SDS011;7177;48.572;7.838;2022-10-22T05:01:56;5.17;;;3.60;;
14191;SDS011;7177;48.572;7.838;2022-10-22T05:04:22;3.67;;;3.30;;
14191;SDS011;7177;48.572;7.838;2022-10-22T05:06:47;6.47;;;3.87;;
14191;SDS011;7177;48.572;7.838;2022-10-22T05:09:14;6.43;;;4.00;;
14191;SDS011;7177;48.572;7.838;2022-10-22T05:11:42;4.80;;;3.57;;
14191;SDS011;7177;48.572;7.838;2022-10-22T05:14:10;5.67;;;3.30;;
14191;SDS011;7177;48.572;7.838;2022-10-22T05:16:36;5.40;;;3.70;;
14191;SDS011;7177;48.572;7.838;2022-10-22T05:19:02;3.77;;;3.13;;
14191;SDS011;7177;48.572;7.838;2022-10-22T05:21:29;5.17;;;3.67;;
14191;SDS011;7177;48.572;7.838;2022-10-22T05:23:56;5.73;;;3.67;;
14191;SDS011;7177;48.572;7.838;2022-10-22T05:26:24;5.47;;;3.87;;
14191;SDS011;7177;48.572;7.838;2022-10-22T05:28:51;5.13;;;3.70;;
14191;SDS011;7177;48.572;7.838;2022-10-22T05:31:17;5.77;;;3.53;;
14191;SDS011;7177;48.572;7.838;2022-10-22T05:33:43;3.67;;;3.20;;
14191;SDS011;7177;48.572;7.838;2022-10-22T05:36:13;5.53;;;2.97;;
14191;SDS011;7177;48.572;7.838;2022-10-22T05:38:40;5.37;;;3.07;;
14191;SDS011;7177;48.572;7.838;2022-10-22T05:41:07;4.37;;;2.93;;
14191;SDS011;7177;48.572;7.838;2022-10-22T05:43:35;4.00;;;2.97;;
14191;SDS011;7177;48.572;7.838;2022-10-22T05:46:11;5.67;;;3.63;;
14191;SDS011;7177;48.572;7.838;2022-10-22T05:48:47;7.37;;;3.60;;
14191;SDS011;7177;48.572;7.838;2022-10-22T05:51:16;3.37;;;3.00;;
14191;SDS011;7177;48.572;7.838;2022-10-22T05:53:42;4.57;;;3.67;;
14191;SDS011;7177;48.572;7.838;2022-10-22T05:56:10;5.07;;;3.60;;
14191;SDS011;7177;48.572;7.838;2022-10-22T05:58:37;6.63;;;3.53;;
14191;SDS011;7177;48.572;7.838;2022-10-22T06:01:07;3.73;;;3.40;;
14191;SDS011;7177;48.572;7.838;2022-10-22T06:03:36;4.53;;;3.43;;
14191;SDS011;7177;48.572;7.838;2022-10-22T06:06:04;7.03;;;3.67;;
14191;SDS011;7177;48.572;7.838;2022-10-22T06:08:50;12.37;;;3.90;;
14191;SDS011;7177;48.572;7.838;2022-10-22T06:11:18;4.67;;;3.80;;
14191;SDS011;7177;48.572;7.838;2022-10-22T06:13:45;6.13;;;3.70;;
14191;SDS011;7177;48.572;7.838;2022-10-22T06:16:11;6.43;;;4.63;;
14191;SDS011;7177;48.572;7.838;2022-10-22T06:18:37;8.00;;;4.00;;
14191;SDS011;7177;48.572;7.838;2022-10-22T06:21:04;4.27;;;3.87;;
14191;SDS011;7177;48.572;7.838;2022-10-22T06:23:39;4.10;;;3.63;;
14191;SDS011;7177;48.572;7.838;2022-10-22T06:26:08;5.17;;;4.13;;
14191;SDS011;7177;48.572;7.838;2022-10-22T06:28:35;6.03;;;4.30;;
14191;SDS011;7177;48.572;7.838;2022-10-22T06:31:01;8.03;;;4.53;;
14191;SDS011;7177;48.572;7.838;2022-10-22T06:33:28;8.30;;;4.73;;
14191;SDS011;7177;48.572;7.838;2022-10-22T06:36:03;6.13;;;4.23;;
14191;SDS011;7177;48.572;7.838;2022-10-22T06:38:33;6.47;;;4.37;;
14191;SDS011;7177;48.572;7.838;2022-10-22T06:41:03;6.27;;;4.63;;
14191;SDS011;7177;48.572;7.838;2022-10-22T06:43:30;6.60;;;4.67;;
14191;SDS011;7177;48.572;7.838;2022-10-22T06:45:59;7.13;;;4.03;;
14191;SDS011;7177;48.572;7.838;2022-10-22T06:48:31;6.13;;;4.80;;
14191;SDS011;7177;48.572;7.838;2022-10-22T06:51:04;6.20;;;4.50;;
14191;SDS011;7177;48.572;7.838;2022-10-22T06:53:31;7.47;;;4.27;;
14191;SDS011;7177;48.572;7.838;2022-10-22T06:55:57;6.00;;;4.40;;
14191;SDS011;7177;48.572;7.838;2022-10-22T06:58:23;4.97;;;4.40;;
14191;SDS011;7177;48.572;7.838;2022-10-22T07:00:48;5.33;;;3.97;;
14191;SDS011;7177;48.572;7.838;2022-10-22T07:03:14;7.03;;;4.30;;
14191;SDS011;7177;48.572;7.838;2022-10-22T07:05:40;5.83;;;3.83;;
14191;SDS011;7177;48.572;7.838;2022-10-22T07:08:06;7.17;;;3.60;;
14191;SDS011;7177;48.572;7.838;2022-10-22T07:10:32;4.13;;;3.37;;
14191;SDS011;7177;48.572;7.838;2022-10-22T07:12:58;6.53;;;3.87;;
14191;SDS011;7177;48.572;7.838;2022-10-22T07:15:23;6.60;;;2.87;;
14191;SDS011;7177;48.572;7.838;2022-10-22T07:17:49;6.13;;;3.00;;
14191;SDS011;7177;48.572;7.838;2022-10-22T07:20:16;5.33;;;2.70;;
14191;SDS011;7177;48.572;7.838;2022-10-22T07:22:42;3.83;;;2.80;;
14191;SDS011;7177;48.572;7.838;2022-10-22T07:25:08;6.87;;;2.53;;
14191;SDS011;7177;48.572;7.838;2022-10-22T07:27:34;5.50;;;2.87;;
14191;SDS011;7177;48.572;7.838;2022-10-22T07:30:00;2.60;;;2.40;;
14191;SDS011;7177;48.572;7.838;2022-10-22T07:32:25;5.07;;;2.50;;
14191;SDS011;7177;48.572;7.838;2022-10-22T07:34:51;4.50;;;2.20;;
14191;SDS011;7177;48.572;7.838;2022-10-22T07:37:17;4.17;;;2.33;;
14191;SDS011;7177;48.572;7.838;2022-10-22T07:39:45;2.90;;;2.23;;
14191;SDS011;7177;48.572;7.838;2022-10-22T07:42:12;3.30;;;2.37;;
14191;SDS011;7177;48.572;7.838;2022-10-22T07:44:37;3.20;;;1.93;;
14191;SDS011;7177;48.572;7.838;2022-10-22T07:47:03;3.53;;;1.97;;
14191;SDS011;7177;48.572;7.838;2022-10-22T07:49:28;2.60;;;2.13;;
14191;SDS011;7177;48.572;7.838;2022-10-22T07:51:54;3.10;;;2.30;;
14191;SDS011;7177;48.572;7.838;2022-10-22T07:54:20;5.43;;;2.13;;
14191;SDS011;7177;48.572;7.838;2022-10-22T07:56:46;10.07;;;2.40;;
14191;SDS011;7177;48.572;7.838;2022-10-22T07:59:12;4.70;;;2.23;;
14191;SDS011;7177;48.572;7.838;2022-10-22T08:01:37;4.50;;;2.80;;
14191;SDS011;7177;48.572;7.838;2022-10-22T08:04:03;4.83;;;2.70;;
14191;SDS011;7177;48.572;7.838;2022-10-22T08:06:32;4.17;;;3.00;;
14191;SDS011;7177;48.572;7.838;2022-10-22T08:08:58;4.07;;;2.60;;
14191;SDS011;7177;48.572;7.838;2022-10-22T08:11:24;5.43;;;3.10;;
14191;SDS011;7177;48.572;7.838;2022-10-22T08:13:50;4.90;;;2.20;;
14191;SDS011;7177;48.572;7.838;2022-10-22T08:16:16;4.23;;;2.10;;
14191;SDS011;7177;48.572;7.838;2022-10-22T08:18:42;5.33;;;2.13;;
14191;SDS011;7177;48.572;7.838;2022-10-22T08:21:07;4.00;;;2.10;;
14191;SDS011;7177;48.572;7.838;2022-10-22T08:23:33;7.23;;;2.73;;
14191;SDS011;7177;48.572;7.838;2022-10-22T08:25:59;5.10;;;3.30;;
14191;SDS011;7177;48.572;7.838;2022-10-22T08:28:24;5.27;;;3.40;;
14191;SDS011;7177;48.572;7.838;2022-10-22T08:30:52;4.50;;;3.20;;
14191;SDS011;7177;48.572;7.838;2022-10-22T08:33:18;5.70;;;3.20;;
14191;SDS011;7177;48.572;7.838;2022-10-22T08:35:47;7.07;;;3.50;;
14191;SDS011;7177;48.572;7.838;2022-10-22T08:38:13;3.87;;;3.50;;
14191;SDS011;7177;48.572;7.838;2022-10-22T08:40:39;5.80;;;3.30;;
14191;SDS011;7177;48.572;7.838;2022-10-22T08:48:51;3.30;;;2.70;;
14191;SDS011;7177;48.572;7.838;2022-10-22T08:51:23;4.53;;;2.60;;
14191;SDS011;7177;48.572;7.838;2022-10-22T08:56:30;4.00;;;2.20;;
14191;SDS011;7177;48.572;7.838;2022-10-22T08:59:00;4.80;;;1.90;;
14191;SDS011;7177;48.572;7.838;2022-10-22T09:01:35;3.50;;;1.90;;
14191;SDS011;7177;48.572;7.838;2022-10-22T09:06:54;4.10;;;2.23;;
14191;SDS011;7177;48.572;7.838;2022-10-22T09:09:22;3.40;;;2.10;;
14191;SDS011;7177;48.572;7.838;2022-10-22T09:11:55;3.00;;;2.20;;
14191;SDS011;7177;48.572;7.838;2022-10-22T09:14:24;3.57;;;2.03;;
14191;SDS011;7177;48.572;7.838;2022-10-22T09:19:48;4.90;;;1.90;;
14191;SDS011;7177;48.572;7.838;2022-10-22T09:25:30;4.47;;;2.17;;
14191;SDS011;7177;48.572;7.838;2022-10-22T09:28:00;3.80;;;1.90;;
14191;SDS011;7177;48.572;7.838;2022-10-22T09:30:28;4.17;;;1.80;;
14191;SDS011;7177;48.572;7.838;2022-10-22T09:32:59;3.70;;;1.60;;
14191;SDS011;7177;48.572;7.838;2022-10-22T09:35:32;2.90;;;1.73;;
14191;SDS011;7177;48.572;7.838;2022-10-22T09:38:05;2.63;;;1.47;;
14191;SDS011;7177;48.572;7.838;2022-10-22T09:40:40;3.70;;;1.53;;
14191;SDS011;7177;48.572;7.838;2022-10-22T09:43:11;2.60;;;1.93;;
14191;SDS011;7177;48.572;7.838;2022-10-22T09:45:38;4.20;;;1.80;;
14191;SDS011;7177;48.572;7.838;2022-10-22T09:50:40;5.17;;;1.90;;
14191;SDS011;7177;48.572;7.838;2022-10-22T09:53:13;2.43;;;1.67;;
14191;SDS011;7177;48.572;7.838;2022-10-22T09:55:39;3.60;;;1.90;;
14191;SDS011;7177;48.572;7.838;2022-10-22T09:58:10;2.77;;;1.90;;
14191;SDS011;7177;48.572;7.838;2022-10-22T10:00:37;4.00;;;1.80;;
14191;SDS011;7177;48.572;7.838;2022-10-22T10:03:14;2.40;;;1.70;;
14191;SDS011;7177;48.572;7.838;2022-10-22T10:05:49;2.13;;;1.30;;
14191;SDS011;7177;48.572;7.838;2022-10-22T10:08:17;5.30;;;1.80;;
14191;SDS011;7177;48.572;7.838;2022-10-22T10:10:47;2.90;;;1.57;;
14191;SDS011;7177;48.572;7.838;2022-10-22T10:13:19;3.87;;;1.63;;
14191;SDS011;7177;48.572;7.838;2022-10-22T10:15:52;2.53;;;1.50;;
14191;SDS011;7177;48.572;7.838;2022-10-22T10:18:24;3.00;;;1.60;;
14191;SDS011;7177;48.572;7.838;2022-10-22T10:27:08;3.43;;;1.70;;
14191;SDS011;7177;48.572;7.838;2022-10-22T10:32:20;3.80;;;1.67;;
14191;SDS011;7177;48.572;7.838;2022-10-22T10:35:14;2.03;;;1.40;;
14191;SDS011;7177;48.572;7.838;2022-10-22T10:37:47;3.10;;;1.70;;
14191;SDS011;7177;48.572;7.838;2022-10-22T10:40:47;2.13;;;1.30;;
14191;SDS011;7177;48.572;7.838;2022-10-22T10:43:24;1.87;;;1.40;;
14191;SDS011;7177;48.572;7.838;2022-10-22T10:48:55;8.33;;;1.60;;
14191;SDS011;7177;48.572;7.838;2022-10-22T10:51:37;3.13;;;1.50;;
14191;SDS011;7177;48.572;7.838;2022-10-22T11:02:51;3.77;;;1.63;;
14191;SDS011;7177;48.572;7.838;2022-10-22T11:05:51;3.70;;;1.57;;
14191;SDS011;7177;48.572;7.838;2022-10-22T11:08:29;5.97;;;2.20;;
14191;SDS011;7177;48.572;7.838;2022-10-22T11:11:13;3.73;;;1.10;;
14191;SDS011;7177;48.572;7.838;2022-10-22T11:13:50;4.83;;;1.43;;
14191;SDS011;7177;48.572;7.838;2022-10-22T11:16:42;6.47;;;1.67;;
14191;SDS011;7177;48.572;7.838;2022-10-22T11:19:19;6.10;;;1.50;;
14191;SDS011;7177;48.572;7.838;2022-10-22T11:21:55;3.53;;;1.40;;
14191;SDS011;7177;48.572;7.838;2022-10-22T11:24:55;2.73;;;1.33;;
14191;SDS011;7177;48.572;7.838;2022-10-22T11:27:38;2.33;;;1.23;;
14191;SDS011;7177;48.572;7.838;2022-10-22T11:30:15;5.10;;;2.07;;
14191;SDS011;7177;48.572;7.838;2022-10-22T11:32:50;3.40;;;1.70;;
14191;SDS011;7177;48.572;7.838;2022-10-22T11:35:31;3.13;;;1.40;;
14191;SDS011;7177;48.572;7.838;2022-10-22T11:38:03;4.17;;;1.43;;
14191;SDS011;7177;48.572;7.838;2022-10-22T11:40:32;1.57;;;1.17;;
14191;SDS011;7177;48.572;7.838;2022-10-22T11:43:05;2.43;;;1.07;;
14191;SDS011;7177;48.572;7.838;2022-10-22T11:45:34;1.67;;;1.20;;
14191;SDS011;7177;48.572;7.838;2022-10-22T11:55:50;4.00;;;1.47;;
14191;SDS011;7177;48.572;7.838;2022-10-22T12:08:28;3.47;;;1.63;;
14191;SDS011;7177;48.572;7.838;2022-10-22T12:11:02;3.30;;;1.70;;
14191;SDS011;7177;48.572;7.838;2022-10-22T12:13:50;3.97;;;1.50;;
14191;SDS011;7177;48.572;7.838;2022-10-22T12:16:22;6.20;;;1.50;;
14191;SDS011;7177;48.572;7.838;2022-10-22T12:18:52;4.07;;;1.37;;
14191;SDS011;7177;48.572;7.838;2022-10-22T12:21:24;2.37;;;1.20;;
14191;SDS011;7177;48.572;7.838;2022-10-22T12:23:50;4.13;;;1.60;;
14191;SDS011;7177;48.572;7.838;2022-10-22T12:26:26;2.93;;;1.30;;
14191;SDS011;7177;48.572;7.838;2022-10-22T12:28:57;3.27;;;1.40;;
14191;SDS011;7177;48.572;7.838;2022-10-22T12:31:24;2.83;;;1.30;;
14191;SDS011;7177;48.572;7.838;2022-10-22T12:33:56;4.17;;;1.57;;
14191;SDS011;7177;48.572;7.838;2022-10-22T12:36:24;7.57;;;1.83;;
14191;SDS011;7177;48.572;7.838;2022-10-22T12:38:53;4.00;;;1.60;;
14191;SDS011;7177;48.572;7.838;2022-10-22T12:41:20;5.07;;;1.43;;
14191;SDS011;7177;48.572;7.838;2022-10-22T12:43:46;4.50;;;1.43;;
14191;SDS011;7177;48.572;7.838;2022-10-22T12:46:12;3.37;;;1.80;;
14191;SDS011;7177;48.572;7.838;2022-10-22T12:48:41;3.33;;;1.40;;
14191;SDS011;7177;48.572;7.838;2022-10-22T12:51:10;4.73;;;1.60;;
14191;SDS011;7177;48.572;7.838;2022-10-22T12:53:47;3.67;;;1.57;;
14191;SDS011;7177;48.572;7.838;2022-10-22T12:56:17;2.57;;;1.30;;
14191;SDS011;7177;48.572;7.838;2022-10-22T12:59:04;1.97;;;1.30;;
14191;SDS011;7177;48.572;7.838;2022-10-22T13:01:40;4.07;;;1.63;;
14191;SDS011;7177;48.572;7.838;2022-10-22T13:04:18;3.93;;;1.23;;
14191;SDS011;7177;48.572;7.838;2022-10-22T13:06:45;4.00;;;1.40;;
14191;SDS011;7177;48.572;7.838;2022-10-22T13:09:21;3.10;;;1.43;;
14191;SDS011;7177;48.572;7.838;2022-10-22T13:11:49;3.23;;;1.40;;
14191;SDS011;7177;48.572;7.838;2022-10-22T13:14:28;3.47;;;1.20;;
14191;SDS011;7177;48.572;7.838;2022-10-22T13:19:37;5.00;;;1.60;;
14191;SDS011;7177;48.572;7.838;2022-10-22T13:22:03;4.63;;;1.50;;
14191;SDS011;7177;48.572;7.838;2022-10-22T13:24:29;5.13;;;1.77;;
14191;SDS011;7177;48.572;7.838;2022-10-22T13:26:55;9.20;;;1.63;;
14191;SDS011;7177;48.572;7.838;2022-10-22T13:29:21;4.00;;;1.30;;
14191;SDS011;7177;48.572;7.838;2022-10-22T13:31:49;3.60;;;1.60;;
14191;SDS011;7177;48.572;7.838;2022-10-22T13:34:19;4.03;;;1.40;;
14191;SDS011;7177;48.572;7.838;2022-10-22T13:36:46;6.50;;;1.70;;
14191;SDS011;7177;48.572;7.838;2022-10-22T13:39:15;5.37;;;1.80;;
14191;SDS011;7177;48.572;7.838;2022-10-22T13:41:42;3.83;;;1.60;;
14191;SDS011;7177;48.572;7.838;2022-10-22T13:44:08;3.33;;;1.30;;
14191;SDS011;7177;48.572;7.838;2022-10-22T13:46:33;2.53;;;1.40;;
14191;SDS011;7177;48.572;7.838;2022-10-22T13:49:06;5.07;;;1.60;;
14191;SDS011;7177;48.572;7.838;2022-10-22T13:51:36;3.87;;;1.60;;
14191;SDS011;7177;48.572;7.838;2022-10-22T13:54:03;4.27;;;1.67;;
14191;SDS011;7177;48.572;7.838;2022-10-22T13:56:34;3.37;;;1.60;;
14191;SDS011;7177;48.572;7.838;2022-10-22T13:59:00;3.10;;;1.57;;
14191;SDS011;7177;48.572;7.838;2022-10-22T14:01:26;3.43;;;1.53;;
14191;SDS011;7177;48.572;7.838;2022-10-22T14:03:55;6.33;;;1.50;;
14191;SDS011;7177;48.572;7.838;2022-10-22T14:06:24;6.47;;;1.50;;
14191;SDS011;7177;48.572;7.838;2022-10-22T14:08:57;5.77;;;1.50;;
14191;SDS011;7177;48.572;7.838;2022-10-22T14:11:24;4.80;;;1.50;;
14191;SDS011;7177;48.572;7.838;2022-10-22T14:13:55;3.43;;;1.13;;
14191;SDS011;7177;48.572;7.838;2022-10-22T14:16:22;11.67;;;2.57;;
14191;SDS011;7177;48.572;7.838;2022-10-22T14:18:49;4.73;;;1.60;;
14191;SDS011;7177;48.572;7.838;2022-10-22T14:21:16;2.43;;;1.33;;
14191;SDS011;7177;48.572;7.838;2022-10-22T14:23:43;6.43;;;1.50;;
14191;SDS011;7177;48.572;7.838;2022-10-22T14:26:19;4.10;;;1.67;;
14191;SDS011;7177;48.572;7.838;2022-10-22T14:28:47;3.10;;;1.53;;
14191;SDS011;7177;48.572;7.838;2022-10-22T14:31:13;2.03;;;1.27;;
14191;SDS011;7177;48.572;7.838;2022-10-22T14:33:39;3.53;;;1.40;;
14191;SDS011;7177;48.572;7.838;2022-10-22T14:36:05;3.97;;;1.37;;
14191;SDS011;7177;48.572;7.838;2022-10-22T14:38:31;4.33;;;1.33;;
14191;SDS011;7177;48.572;7.838;2022-10-22T14:40:56;4.63;;;1.40;;
14191;SDS011;7177;48.572;7.838;2022-10-22T14:43:25;3.67;;;1.33;;
14191;SDS011;7177;48.572;7.838;2022-10-22T14:45:52;5.13;;;1.60;;
14191;SDS011;7177;48.572;7.838;2022-10-22T14:48:18;2.87;;;1.20;;
14191;SDS011;7177;48.572;7.838;2022-10-22T14:50:44;2.87;;;1.63;;
14191;SDS011;7177;48.572;7.838;2022-10-22T14:53:10;2.80;;;1.50;;
14191;SDS011;7177;48.572;7.838;2022-10-22T14:55:37;3.53;;;1.40;;
14191;SDS011;7177;48.572;7.838;2022-10-22T14:58:03;5.80;;;1.63;;
14191;SDS011;7177;48.572;7.838;2022-10-22T15:00:28;5.53;;;1.50;;
14191;SDS011;7177;48.572;7.838;2022-10-22T15:02:54;4.70;;;1.30;;
14191;SDS011;7177;48.572;7.838;2022-10-22T15:05:20;2.60;;;1.40;;
14191;SDS011;7177;48.572;7.838;2022-10-22T15:07:46;3.63;;;1.70;;
14191;SDS011;7177;48.572;7.838;2022-10-22T15:10:11;5.60;;;1.30;;
14191;SDS011;7177;48.572;7.838;2022-10-22T15:12:37;4.27;;;1.40;;
14191;SDS011;7177;48.572;7.838;2022-10-22T15:15:03;2.93;;;1.50;;
14191;SDS011;7177;48.572;7.838;2022-10-22T15:17:29;3.80;;;1.43;;
14191;SDS011;7177;48.572;7.838;2022-10-22T15:19:55;5.80;;;1.37;;
14191;SDS011;7177;48.572;7.838;2022-10-22T15:22:23;2.87;;;1.40;;
14191;SDS011;7177;48.572;7.838;2022-10-22T15:24:49;4.87;;;1.63;;
14191;SDS011;7177;48.572;7.838;2022-10-22T15:27:16;5.47;;;1.33;;
14191;SDS011;7177;48.572;7.838;2022-10-22T15:29:42;6.23;;;1.40;;
14191;SDS011;7177;48.572;7.838;2022-10-22T15:32:07;10.13;;;2.20;;
14191;SDS011;7177;48.572;7.838;2022-10-22T15:34:38;2.17;;;1.40;;
14191;SDS011;7177;48.572;7.838;2022-10-22T15:37:05;2.63;;;1.40;;
14191;SDS011;7177;48.572;7.838;2022-10-22T15:39:33;2.83;;;1.40;;
14191;SDS011;7177;48.572;7.838;2022-10-22T15:41:59;3.73;;;1.60;;
14191;SDS011;7177;48.572;7.838;2022-10-22T15:44:25;2.13;;;1.50;;
14191;SDS011;7177;48.572;7.838;2022-10-22T15:46:53;3.33;;;1.50;;
14191;SDS011;7177;48.572;7.838;2022-10-22T15:49:19;3.20;;;1.50;;
14191;SDS011;7177;48.572;7.838;2022-10-22T15:51:45;3.83;;;1.77;;
14191;SDS011;7177;48.572;7.838;2022-10-22T15:54:12;3.87;;;1.40;;
14191;SDS011;7177;48.572;7.838;2022-10-22T15:56:40;4.77;;;1.53;;
14191;SDS011;7177;48.572;7.838;2022-10-22T15:59:05;3.83;;;1.80;;
14191;SDS011;7177;48.572;7.838;2022-10-22T16:01:32;4.63;;;1.97;;
14191;SDS011;7177;48.572;7.838;2022-10-22T16:03:58;4.03;;;1.80;;
14191;SDS011;7177;48.572;7.838;2022-10-22T16:06:26;3.00;;;1.67;;
14191;SDS011;7177;48.572;7.838;2022-10-22T16:08:58;2.90;;;1.73;;
14191;SDS011;7177;48.572;7.838;2022-10-22T16:11:25;5.07;;;1.70;;
14191;SDS011;7177;48.572;7.838;2022-10-22T16:13:52;4.70;;;1.90;;
14191;SDS011;7177;48.572;7.838;2022-10-22T16:16:20;8.13;;;2.37;;
14191;SDS011;7177;48.572;7.838;2022-10-22T16:18:46;5.77;;;1.77;;
14191;SDS011;7177;48.572;7.838;2022-10-22T16:21:12;5.07;;;1.90;;
14191;SDS011;7177;48.572;7.838;2022-10-22T16:23:38;2.80;;;1.53;;
14191;SDS011;7177;48.572;7.838;2022-10-22T16:26:05;5.47;;;1.80;;
14191;SDS011;7177;48.572;7.838;2022-10-22T16:28:30;5.20;;;2.13;;
14191;SDS011;7177;48.572;7.838;2022-10-22T16:30:59;3.03;;;1.90;;
14191;SDS011;7177;48.572;7.838;2022-10-22T16:33:26;5.07;;;2.00;;
14191;SDS011;7177;48.572;7.838;2022-10-22T16:35:51;3.73;;;2.10;;
14191;SDS011;7177;48.572;7.838;2022-10-22T16:38:17;4.63;;;2.07;;
14191;SDS011;7177;48.572;7.838;2022-10-22T16:40:43;5.63;;;2.03;;